createdAt,value
2019-05-17T10:08:16.370Z,3.00
2019-05-17T10:11:04.272Z,2.00
2019-05-17T10:13:24.348Z,2.70
2019-05-17T10:15:57.361Z,2.72
2019-05-17T10:18:30.144Z,2.80
2019-05-17T10:21:04.434Z,2.80
2019-05-17T10:23:37.022Z,2.60
2019-05-17T10:26:10.297Z,2.80
2019-05-17T10:28:45.644Z,2.52
2019-05-17T10:31:19.727Z,3.13
2019-05-17T10:33:52.110Z,2.60
2019-05-17T10:36:26.481Z,2.33
2019-05-17T10:38:59.273Z,2.50
2019-05-17T10:41:31.418Z,2.30
2019-05-17T10:44:04.476Z,2.90
2019-05-17T10:46:40.465Z,3.00
2019-05-17T10:49:12.531Z,2.60
2019-05-17T10:51:49.392Z,2.30
2019-05-17T10:54:22.006Z,2.47
2019-05-17T10:56:54.862Z,2.80
2019-05-17T10:59:27.551Z,2.70
2019-05-17T11:04:32.787Z,2.22
2019-05-17T11:07:06.849Z,2.50
2019-05-17T11:09:40.438Z,2.37
2019-05-17T11:12:13.015Z,2.70
2019-05-17T11:14:55.880Z,1.98
2019-05-17T11:17:19.408Z,2.12
2019-05-17T11:19:51.972Z,2.20
2019-05-17T11:22:24.500Z,2.42
2019-05-17T11:24:59.734Z,2.60
2019-05-17T11:27:32.655Z,2.40
2019-05-17T11:30:06.037Z,2.33
2019-05-17T11:32:38.979Z,2.20
2019-05-17T11:35:11.498Z,2.30
2019-05-17T11:37:43.820Z,2.17
2019-05-17T11:42:50.231Z,2.30
2019-05-17T11:45:27.925Z,2.70
2019-05-17T11:47:57.730Z,2.57
2019-05-17T11:50:31.088Z,2.40
2019-05-17T11:53:03.747Z,2.20
2019-05-17T11:55:36.291Z,2.50
2019-05-17T11:58:09.403Z,2.63
2019-05-17T12:00:41.914Z,2.30
2019-05-17T12:05:45.845Z,2.50
2019-05-17T12:08:17.946Z,1.67
2019-05-17T12:13:21.742Z,1.95
2019-05-17T12:15:53.905Z,1.77
2019-05-17T12:20:56.982Z,2.00
2019-05-17T12:23:29.397Z,2.00
2019-05-17T12:26:01.344Z,2.05
2019-05-17T12:28:34.707Z,2.02
2019-05-17T12:31:07.398Z,2.40
2019-05-17T12:33:39.218Z,1.45
2019-05-17T12:36:11.626Z,1.95
2019-05-17T12:38:48.810Z,1.85
2019-05-17T12:41:20.942Z,1.92
2019-05-17T12:46:23.644Z,1.80
2019-05-17T12:51:28.268Z,1.70
2019-05-17T12:54:00.417Z,1.35
2019-05-17T12:56:32.503Z,1.90
2019-05-17T13:01:35.747Z,1.75
2019-05-17T13:04:09.163Z,1.40
2019-05-17T13:06:41.575Z,1.70
2019-05-17T13:09:13.598Z,2.10
2019-05-17T13:14:18.161Z,1.65
2019-05-17T13:16:50.311Z,1.90
2019-05-17T13:19:25.220Z,1.90
2019-05-17T13:21:57.401Z,1.77
2019-05-17T13:24:30.180Z,2.20
2019-05-17T13:27:03.087Z,1.98
2019-05-17T13:29:35.168Z,1.80
2019-05-17T13:32:07.982Z,1.90
2019-05-17T13:34:40.298Z,1.85
2019-05-17T13:37:12.025Z,2.27
2019-05-17T13:39:45.009Z,1.90
2019-05-17T13:42:16.730Z,1.90
2019-05-17T13:44:49.440Z,2.20
2019-05-17T13:47:21.307Z,1.85
2019-05-17T13:49:53.682Z,1.65
2019-05-17T13:52:25.480Z,1.92
2019-05-17T13:54:59.244Z,1.80
2019-05-17T13:57:31.688Z,1.92
2019-05-17T14:00:05.021Z,1.97
2019-05-17T14:02:37.800Z,1.67
2019-05-17T14:05:11.592Z,1.87
2019-05-17T14:07:44.303Z,2.23
2019-05-17T14:10:27.630Z,1.80
2019-05-17T14:12:53.106Z,2.07
2019-05-17T14:15:26.580Z,2.33
2019-05-17T14:17:59.066Z,1.67
2019-05-17T14:20:31.446Z,2.20
2019-05-17T14:23:06.221Z,1.93
2019-05-17T14:25:38.937Z,2.20
2019-05-17T14:28:11.540Z,1.97
2019-05-17T14:30:43.987Z,1.70
2019-05-17T14:33:16.510Z,1.92
2019-05-17T14:35:48.355Z,1.85
2019-05-17T14:41:08.761Z,1.80
2019-05-17T14:43:27.342Z,1.80
2019-05-17T14:45:59.403Z,1.85
2019-05-17T14:48:31.470Z,1.75
2019-05-17T14:51:04.023Z,1.65
2019-05-17T14:53:36.150Z,1.87
2019-05-17T14:56:07.952Z,1.60
2019-05-17T15:01:13.030Z,1.80
2019-05-17T15:03:45.491Z,1.95
2019-05-17T15:06:18.510Z,1.62
2019-05-17T15:08:55.258Z,2.20
2019-05-17T15:11:27.520Z,2.02
2019-05-17T15:14:00.006Z,1.98
2019-05-17T15:16:32.357Z,2.35
2019-05-17T15:19:04.596Z,1.95
2019-05-17T15:21:36.747Z,2.08
2019-05-17T15:24:09.814Z,2.40
2019-05-17T15:26:42.219Z,1.95
2019-05-17T15:29:14.497Z,1.77
2019-05-17T15:31:51.888Z,2.37
2019-05-17T15:34:22.455Z,2.00
2019-05-17T15:36:54.613Z,2.20
2019-05-17T15:39:26.449Z,2.45
2019-05-17T15:44:30.722Z,2.30
2019-05-17T15:47:02.639Z,2.00
2019-05-17T15:52:05.863Z,2.08
2019-05-17T15:54:39.575Z,2.10
2019-05-17T15:57:12.295Z,2.05
2019-05-17T15:59:44.840Z,1.82
2019-05-17T16:02:17.000Z,2.17
2019-05-17T16:04:50.063Z,2.65
2019-05-17T16:07:23.815Z,2.23
2019-05-17T16:09:56.993Z,2.33
2019-05-17T16:12:29.323Z,2.27
2019-05-17T16:15:02.420Z,2.55
2019-05-17T16:17:34.710Z,2.20
2019-05-17T16:20:06.927Z,2.92
2019-05-17T16:22:40.131Z,2.70
2019-05-17T16:25:12.975Z,2.10
2019-05-17T16:27:45.657Z,2.35
2019-05-17T16:30:18.586Z,2.22
2019-05-17T16:32:51.590Z,2.27
2019-05-17T16:35:26.354Z,2.50
2019-05-17T16:37:58.053Z,2.20
2019-05-17T16:40:30.168Z,2.27
2019-05-17T16:43:16.775Z,2.35
2019-05-17T16:45:37.958Z,2.12
2019-05-17T16:48:11.051Z,2.33
2019-05-17T16:50:43.542Z,2.33
2019-05-17T16:53:18.304Z,2.70
2019-05-17T16:55:50.914Z,2.95
2019-05-17T16:58:23.648Z,2.83
2019-05-17T17:00:57.362Z,2.10
2019-05-17T17:03:43.957Z,2.77
2019-05-17T17:06:04.594Z,2.42
2019-05-17T17:08:41.132Z,2.72
2019-05-17T17:11:13.695Z,2.30
2019-05-17T17:13:45.842Z,2.25
2019-05-17T17:16:18.294Z,2.65
2019-05-17T17:18:50.489Z,2.90
2019-05-17T17:23:54.319Z,2.47
2019-05-17T17:26:27.818Z,2.47
2019-05-17T17:29:02.826Z,2.52
2019-05-17T17:31:42.763Z,2.40
2019-05-17T17:34:15.985Z,2.20
2019-05-17T17:36:49.267Z,2.43
2019-05-17T17:39:22.791Z,2.57
2019-05-17T17:41:55.577Z,2.13
2019-05-17T17:44:30.367Z,2.50
2019-05-17T17:47:02.791Z,2.17
2019-05-17T17:52:05.672Z,2.27
2019-05-17T17:54:38.893Z,2.17
2019-05-17T17:57:11.082Z,2.30
2019-05-17T18:02:15.259Z,2.33
2019-05-17T18:04:50.808Z,2.30
2019-05-17T18:07:23.747Z,2.13
2019-05-17T18:09:56.710Z,2.00
2019-05-17T18:12:29.833Z,1.80
2019-05-17T18:15:06.272Z,2.23
2019-05-17T18:17:39.447Z,2.10
2019-05-17T18:20:12.326Z,1.80
2019-05-17T18:25:15.136Z,2.02
2019-05-17T18:27:47.553Z,1.95
2019-05-17T18:30:21.459Z,2.00
2019-05-17T18:32:53.637Z,2.00
2019-05-17T18:35:26.846Z,1.95
2019-05-17T18:37:59.378Z,1.82
2019-05-17T18:43:03.043Z,2.00
2019-05-17T18:45:35.128Z,2.15
2019-05-17T18:48:08.703Z,1.70
2019-05-17T18:50:41.449Z,2.07
2019-05-17T18:55:46.564Z,1.77
2019-05-17T18:58:19.247Z,2.45
2019-05-17T19:00:52.527Z,2.53
2019-05-17T19:03:24.888Z,2.00
2019-05-17T19:05:57.569Z,2.12
2019-05-17T19:08:30.602Z,1.85
2019-05-17T19:11:02.659Z,1.77
2019-05-17T19:13:35.335Z,1.70
2019-05-17T19:16:07.613Z,1.70
2019-05-17T19:18:40.342Z,1.98
2019-05-17T19:21:13.681Z,1.75
2019-05-17T19:23:46.419Z,1.57
2019-05-17T19:26:23.353Z,2.27
2019-05-17T19:29:03.781Z,2.17
2019-05-17T19:31:47.310Z,2.53
2019-05-17T19:34:20.387Z,2.30
2019-05-17T19:36:53.190Z,2.20
2019-05-17T19:39:25.673Z,1.98
2019-05-17T19:41:57.749Z,2.33
2019-05-17T19:44:33.475Z,2.40
2019-05-17T19:47:11.053Z,2.10
2019-05-17T19:49:45.158Z,2.07
2019-05-17T19:52:20.347Z,1.93
2019-05-17T19:54:53.089Z,2.60
2019-05-17T19:57:26.068Z,2.22
2019-05-17T20:02:29.895Z,1.98
2019-05-17T20:05:03.307Z,2.25
2019-05-17T20:11:17.356Z,2.60
2019-05-17T20:13:49.850Z,2.15
2019-05-17T20:16:23.040Z,2.30
2019-05-17T20:18:55.889Z,2.62
2019-05-17T20:21:28.278Z,2.25
2019-05-17T20:24:03.123Z,3.47
2019-05-17T20:26:39.757Z,2.67
2019-05-17T20:29:15.634Z,2.72
2019-05-17T20:31:49.866Z,2.87
2019-05-17T20:34:22.984Z,3.58
2019-05-17T20:36:55.081Z,3.17
2019-05-17T20:39:28.172Z,3.50
2019-05-17T20:42:07.643Z,3.08
2019-05-17T20:44:40.566Z,2.75
2019-05-17T20:47:14.870Z,3.02
2019-05-17T20:49:49.868Z,2.85
2019-05-17T20:52:23.521Z,2.75
2019-05-17T20:54:57.833Z,2.77
2019-05-17T20:57:31.201Z,2.62
2019-05-17T21:02:35.438Z,2.35
2019-05-17T21:05:08.295Z,2.30
2019-05-17T21:07:41.074Z,3.00
2019-05-17T21:10:14.497Z,2.98
2019-05-17T21:12:47.315Z,2.77
2019-05-17T21:15:19.725Z,2.87
2019-05-17T21:17:53.136Z,2.87
2019-05-17T21:20:25.476Z,2.55
2019-05-17T21:22:57.872Z,2.50
2019-05-17T21:25:31.711Z,2.65
2019-05-17T21:28:04.670Z,2.47
2019-05-17T21:30:37.211Z,2.65
2019-05-17T21:33:09.479Z,2.70
2019-05-17T21:38:47.751Z,2.72
2019-05-17T21:41:21.606Z,2.72
2019-05-17T21:43:54.014Z,3.47
2019-05-17T21:46:27.046Z,2.60
2019-05-17T21:49:00.023Z,2.95
2019-05-17T21:51:34.275Z,2.72
2019-05-17T21:54:08.282Z,2.83
2019-05-17T21:59:12.928Z,2.37
2019-05-17T22:01:45.245Z,2.77
2019-05-17T22:04:18.074Z,2.87
2019-05-17T22:06:52.324Z,2.55
2019-05-17T22:09:25.022Z,2.45
2019-05-17T22:12:00.584Z,2.40
2019-05-17T22:14:33.269Z,2.87
2019-05-17T22:17:06.463Z,2.40
2019-05-17T22:19:38.949Z,2.62
2019-05-17T22:22:11.208Z,3.10
2019-05-17T22:24:43.600Z,2.95
2019-05-17T22:27:16.548Z,2.90
2019-05-17T22:29:49.009Z,2.92
2019-05-17T22:32:21.992Z,2.67
2019-05-17T22:34:54.908Z,2.40
2019-05-17T22:39:58.181Z,2.77
2019-05-17T22:42:30.316Z,3.40
2019-05-17T22:45:02.789Z,2.95
2019-05-17T22:47:34.804Z,3.00
2019-05-17T22:50:07.340Z,3.47
2019-05-17T22:52:39.820Z,3.02
2019-05-17T22:55:12.012Z,3.08
2019-05-17T22:57:44.493Z,3.37
2019-05-17T23:00:17.003Z,3.00
2019-05-17T23:02:49.403Z,2.90
2019-05-17T23:05:26.337Z,3.05
2019-05-17T23:07:56.695Z,3.12
2019-05-17T23:10:31.052Z,3.67
2019-05-17T23:13:04.147Z,3.42
2019-05-17T23:15:55.107Z,3.37
2019-05-17T23:18:28.156Z,3.12
2019-05-17T23:21:01.295Z,2.87
2019-05-17T23:26:05.049Z,3.02
2019-05-17T23:28:39.074Z,3.60
2019-05-17T23:31:11.957Z,2.92
2019-05-17T23:33:44.027Z,3.00
2019-05-17T23:36:17.167Z,3.45
2019-05-17T23:38:50.634Z,2.75
2019-05-17T23:41:23.729Z,3.08
2019-05-17T23:43:56.742Z,2.95
2019-05-17T23:46:29.202Z,2.70
2019-05-17T23:49:02.046Z,3.58
2019-05-17T23:51:34.410Z,2.90
2019-05-17T23:54:06.574Z,3.33
2019-05-17T23:56:38.380Z,3.40
2019-05-17T23:59:11.840Z,3.47
